TAF Flughafenprognosen

Nürnberg TAF, ausgegeben Mo 06.04. 07:00

TAF EDDN 060500Z 0606/0706 10004KT CAVOK TEMPO 0610/0615 20005KT
GültigkeitVonBisWind in Beaufort
(Knoten)
Wolken
(Meter über Grund)
Sichtweite
(Meter)
Wettererscheinung
Grundvorhersage Mo 06.04. 08:00 Di 07.04. 08:00 O 2 (4) Nicht signifikant >= 10000  
Vorübergehend Mo 06.04. 12:00 Mo 06.04. 17:00 SSW 2 (5)      

 

Hof TAF, ausgegeben Mo 06.04. 10:00

TAF EDQM 060800Z 0609/0618 17008KT CAVOK BECMG 0611/0613 23008KT BECMG 0616/0618 21003KT
GültigkeitVonBisWind in Beaufort
(Knoten)
Wolken
(Meter über Grund)
Sichtweite
(Meter)
Wettererscheinung
Grundvorhersage Mo 06.04. 11:00 Mo 06.04. 20:00 S 3 (8) Nicht signifikant >= 10000  
Übergang zu Mo 06.04. 13:00 Mo 06.04. 15:00 SW 3 (8)      
Übergang zu Mo 06.04. 18:00 Mo 06.04. 20:00 SSW 2 (3)      

 

Erfurt-Bindersleben TAF, ausgegeben Mo 06.04. 07:00

TAF EDDE 060500Z 0606/0706 19004KT CAVOK BECMG 0609/0612 25006KT
GültigkeitVonBisWind in Beaufort
(Knoten)
Wolken
(Meter über Grund)
Sichtweite
(Meter)
Wettererscheinung
Grundvorhersage Mo 06.04. 08:00 Di 07.04. 08:00 S 2 (4) Nicht signifikant >= 10000  
Übergang zu Mo 06.04. 11:00 Mo 06.04. 14:00 WSW 2 (6)      

 

Augsburg TAF, ausgegeben Mo 06.04. 10:00

TAF EDMA 060800Z 0609/0618 27004KT CAVOK BECMG 0610/0612 34005KT BECMG 0616/0618 VRB03KT
GültigkeitVonBisWind in Beaufort
(Knoten)
Wolken
(Meter über Grund)
Sichtweite
(Meter)
Wettererscheinung
Grundvorhersage Mo 06.04. 11:00 Mo 06.04. 20:00 W 2 (4) Nicht signifikant >= 10000  
Übergang zu Mo 06.04. 12:00 Mo 06.04. 14:00 NNW 2 (5)      
Übergang zu Mo 06.04. 18:00 Mo 06.04. 20:00 Uml 2 (3)      

 

Frankfurt TAF, ausgegeben Mo 06.04. 07:00

TAF EDDF 060500Z 0606/0712 VRB03KT CAVOK BECMG 0607/0609 20007KT BECMG 0619/0621 VRB03KT BECMG 0708/0710 04007KT
GültigkeitVonBisWind in Beaufort
(Knoten)
Wolken
(Meter über Grund)
Sichtweite
(Meter)
Wettererscheinung
Grundvorhersage Mo 06.04. 08:00 Di 07.04. 14:00 Uml 2 (3) Nicht signifikant >= 10000  
Übergang zu Mo 06.04. 09:00 Mo 06.04. 11:00 SSW 3 (7)      
Übergang zu Mo 06.04. 21:00 Mo 06.04. 23:00 Uml 2 (3)      
Übergang zu Di 07.04. 10:00 Di 07.04. 12:00 NO 3 (7)      

 

Stuttgart TAF, ausgegeben Mo 06.04. 07:00

TAF EDDS 060500Z 0606/0706 VRB03KT CAVOK TEMPO 0612/0618 06005KT
GültigkeitVonBisWind in Beaufort
(Knoten)
Wolken
(Meter über Grund)
Sichtweite
(Meter)
Wettererscheinung
Grundvorhersage Mo 06.04. 08:00 Di 07.04. 08:00 Uml 2 (3) Nicht signifikant >= 10000  
Vorübergehend Mo 06.04. 14:00 Mo 06.04. 20:00 ONO 2 (5)      

 

München TAF, ausgegeben Mo 06.04. 10:09

TAF AMD EDDM 060809Z 0608/0712 27006KT CAVOK BECMG 0617/0618 VRB03KT BECMG 0706/0708 09005KT
GültigkeitVonBisWind in Beaufort
(Knoten)
Wolken
(Meter über Grund)
Sichtweite
(Meter)
Wettererscheinung
Grundvorhersage Mo 06.04. 10:00 Di 07.04. 14:00 W 2 (6) Nicht signifikant >= 10000  
Übergang zu Mo 06.04. 19:00 Mo 06.04. 20:00 Uml 2 (3)      
Übergang zu Di 07.04. 08:00 Di 07.04. 10:00 O 2 (5)